Time;durP1;ratioP1;P1;durP2;ratioP2;P2;SDS_P1;SDS_P2;PMS_P1;PMS_P2;Temp;Humidity;BMP_temperature;BMP_pressure;BME280_temperature;BME280_humidity;BME280_pressure;Samples;Min_cycle;Max_cycle;Signal;HPM_P1;HPM_P2
2021/01/05 00:00:23;;;;;;;70.13;30.73;;;4.30;94.40;;;;;;5069625;28;20218;-81
2021/01/05 00:03:00;;;;;;;69.77;27.97;;;4.20;94.30;;;;;;5076619;28;20197;-82
2021/01/05 00:05:30;;;;;;;76.80;31.90;;;4.20;94.30;;;;;;5073691;28;20205;-81
2021/01/05 00:07:59;;;;;;;70.37;30.87;;;4.20;94.30;;;;;;5078826;28;20482;-82
2021/01/05 00:10:26;;;;;;;60.10;24.60;;;4.20;94.30;;;;;;5077540;28;20199;-82
2021/01/05 00:12:54;;;;;;;71.50;30.60;;;4.30;94.40;;;;;;5048746;28;20228;-79
2021/01/05 00:15:22;;;;;;;48.23;20.90;;;4.30;94.40;;;;;;5076357;28;20252;-81
2021/01/05 00:17:50;;;;;;;62.30;29.63;;;4.30;94.40;;;;;;5078300;28;20196;-82
2021/01/05 00:20:21;;;;;;;74.03;30.23;;;4.30;94.40;;;;;;5077030;28;20209;-80
2021/01/05 00:22:49;;;;;;;73.13;29.07;;;4.30;94.40;;;;;;5092472;28;20271;-81
2021/01/05 00:25:20;;;;;;;57.77;22.47;;;4.30;94.40;;;;;;5089103;28;20255;-83
2021/01/05 00:27:48;;;;;;;71.50;29.77;;;4.30;94.40;;;;;;5087001;28;20206;-80
2021/01/05 00:30:23;;;;;;;59.37;26.63;;;4.30;94.40;;;;;;5072469;28;20260;-83
2021/01/05 00:32:52;;;;;;;69.83;28.93;;;4.30;94.30;;;;;;5072543;28;20335;-82
2021/01/05 00:35:22;;;;;;;73.03;30.27;;;4.30;94.30;;;;;;5084440;28;20585;-81
2021/01/05 00:37:51;;;;;;;63.97;27.47;;;4.30;94.30;;;;;;5082406;28;20194;-81
2021/01/05 00:40:21;;;;;;;65.97;28.73;;;4.30;94.30;;;;;;5070363;28;20688;-83
2021/01/05 00:42:49;;;;;;;49.27;22.10;;;4.30;94.30;;;;;;5074296;28;20505;-80
2021/01/05 00:45:20;;;;;;;63.83;26.63;;;4.30;94.30;;;;;;5064976;28;20227;-82
2021/01/05 00:47:47;;;;;;;54.27;24.57;;;4.30;94.30;;;;;;5091521;28;20204;-81
2021/01/05 00:50:15;;;;;;;60.90;27.53;;;4.30;94.30;;;;;;5071374;28;20501;-80
2021/01/05 00:52:43;;;;;;;60.50;28.47;;;4.30;94.30;;;;;;5074842;28;20225;-81
2021/01/05 00:55:13;;;;;;;66.80;27.57;;;4.20;94.30;;;;;;5085073;28;20193;-82
2021/01/05 00:57:42;;;;;;;62.20;27.20;;;4.40;94.30;;;;;;5053592;28;20203;-82
2021/01/05 01:00:13;;;;;;;37.23;15.53;;;4.30;94.30;;;;;;5053555;28;20212;-83
2021/01/05 01:02:40;;;;;;;77.30;30.90;;;4.30;94.30;;;;;;5077663;28;20204;-79
2021/01/05 01:05:09;;;;;;;58.77;27.63;;;4.50;94.30;;;;;;5068437;28;20420;-80
2021/01/05 01:07:39;;;;;;;71.63;30.50;;;4.30;94.30;;;;;;5097341;28;20199;-82
2021/01/05 01:10:08;;;;;;;60.10;26.03;;;4.40;94.30;;;;;;5099117;28;20270;-81
2021/01/05 01:12:35;;;;;;;61.17;27.47;;;4.40;94.30;;;;;;5092048;28;20260;-81
2021/01/05 01:15:06;;;;;;;67.57;29.53;;;4.40;94.30;;;;;;5093243;28;20223;-82
2021/01/05 01:17:34;;;;;;;67.37;29.00;;;4.40;94.30;;;;;;5084078;28;20237;-82
2021/01/05 01:20:02;;;;;;;70.53;29.23;;;4.40;94.30;;;;;;5084848;28;20223;-82
2021/01/05 01:22:30;;;;;;;60.20;26.80;;;4.40;94.30;;;;;;5078405;28;20204;-81
2021/01/05 01:24:57;;;;;;;52.23;24.27;;;4.30;94.30;;;;;;5089460;28;20233;-82
2021/01/05 01:27:24;;;;;;;62.70;27.87;;;4.40;94.30;;;;;;5092046;28;20202;-81
2021/01/05 01:29:52;;;;;;;60.47;27.33;;;4.40;94.30;;;;;;5084628;28;20207;-80
2021/01/05 01:32:20;;;;;;;60.27;27.20;;;4.40;94.30;;;;;;5071011;28;20227;-81
2021/01/05 01:34:48;;;;;;;59.43;26.77;;;4.40;94.30;;;;;;5075391;28;20867;-82
2021/01/05 01:37:17;;;;;;;56.87;24.83;;;4.40;94.30;;;;;;5066800;28;20209;-80
2021/01/05 01:39:47;;;;;;;51.70;24.33;;;4.40;94.30;;;;;;5073881;28;20206;-82
2021/01/05 01:42:16;;;;;;;65.90;27.97;;;4.40;94.30;;;;;;5071126;28;20211;-82
2021/01/05 01:44:44;;;;;;;69.77;27.90;;;4.40;94.30;;;;;;5068570;28;20199;-81
2021/01/05 01:47:15;;;;;;;77.00;33.27;;;4.40;94.30;;;;;;5085726;28;20193;-81
2021/01/05 01:49:47;;;;;;;76.63;33.03;;;4.40;94.30;;;;;;5094303;28;20180;-81
2021/01/05 01:52:20;;;;;;;48.87;21.13;;;4.40;94.30;;;;;;5094317;28;20238;-80
2021/01/05 01:55:12;;;;;;;68.70;30.70;;;4.40;94.30;;;;;;5097216;28;20196;-82
2021/01/05 01:58:00;;;;;;;51.07;22.30;;;4.40;94.30;;;;;;5060154;28;20287;-81
2021/01/05 02:00:35;;;;;;;36.37;16.37;;;4.40;94.30;;;;;;5072519;28;20246;-81
2021/01/05 02:03:43;;;;;;;50.63;22.07;;;4.50;94.40;;;;;;5065199;28;20580;-79
2021/01/05 02:06:27;;;;;;;54.10;24.77;;;4.50;94.40;;;;;;5030188;28;20212;-82
2021/01/05 02:09:07;;;;;;;58.03;23.60;;;4.60;94.40;;;;;;5068223;28;20238;-82
2021/01/05 02:11:47;;;;;;;58.50;24.87;;;4.50;94.40;;;;;;5086162;28;20233;-83
2021/01/05 02:14:33;;;;;;;59.00;24.13;;;4.40;94.40;;;;;;5074183;28;20227;-82
2021/01/05 02:17:34;;;;;;;67.90;26.47;;;4.50;94.40;;;;;;5064585;28;20746;-81
2021/01/05 02:20:09;;;;;;;32.97;15.07;;;4.50;94.40;;;;;;5075721;28;20189;-82
2021/01/05 02:22:51;;;;;;;64.90;26.70;;;4.50;94.40;;;;;;5058238;28;20913;-81
2021/01/05 02:25:28;;;;;;;68.73;28.17;;;4.50;94.40;;;;;;5072286;28;20508;-83
2021/01/05 02:28:02;;;;;;;40.50;17.43;;;4.50;94.40;;;;;;5069880;28;20528;-83
2021/01/05 02:30:35;;;;;;;69.87;27.10;;;4.50;94.40;;;;;;5066491;28;20418;-80
2021/01/05 02:33:14;;;;;;;75.67;30.57;;;4.50;94.30;;;;;;5071001;28;20440;-82
2021/01/05 02:36:07;;;;;;;78.17;26.77;;;4.50;94.30;;;;;;5063820;28;20569;-81
2021/01/05 02:38:52;;;;;;;71.47;29.60;;;4.50;94.30;;;;;;5060367;28;20916;-81
2021/01/05 02:41:37;;;;;;;69.23;27.30;;;4.50;94.30;;;;;;5079600;28;20534;-81
2021/01/05 02:44:30;;;;;;;73.07;28.50;;;4.50;94.30;;;;;;5062233;28;20637;-80
2021/01/05 02:47:10;;;;;;;70.63;28.50;;;4.50;94.30;;;;;;5072487;28;20197;-81
2021/01/05 02:49:45;;;;;;;76.27;28.80;;;4.60;94.30;;;;;;5072452;28;20203;-81
2021/01/05 02:53:00;;;;;;;74.70;27.27;;;4.50;94.30;;;;;;5077589;28;20211;-82
2021/01/05 02:56:04;;;;;;;80.43;28.87;;;4.60;94.30;;;;;;5068751;28;20761;-80
2021/01/05 02:59:13;;;;;;;68.37;27.00;;;4.50;94.20;;;;;;5064129;28;20211;-82
2021/01/05 03:02:13;;;;;;;66.27;25.07;;;4.60;94.20;;;;;;5066527;28;20581;-80
2021/01/05 03:04:41;;;;;;;72.07;27.87;;;4.60;94.20;;;;;;5062456;28;20209;-82
2021/01/05 03:07:13;;;;;;;68.73;26.60;;;4.60;94.30;;;;;;5072929;28;20614;-80
2021/01/05 03:10:06;;;;;;;63.17;27.03;;;4.60;94.30;;;;;;5065063;28;20192;-83
2021/01/05 03:13:05;;;;;;;70.47;25.67;;;4.60;94.20;;;;;;5062093;28;20255;-81
2021/01/05 03:15:45;;;;;;;62.67;25.67;;;4.60;94.20;;;;;;5054499;28;20493;-81
2021/01/05 03:18:22;;;;;;;56.53;24.10;;;4.60;94.20;;;;;;5097310;28;20200;-81
2021/01/05 03:20:56;;;;;;;50.20;21.67;;;4.60;94.20;;;;;;5088441;28;20190;-79
2021/01/05 03:23:25;;;;;;;47.43;20.33;;;4.60;94.20;;;;;;5049626;28;20205;-81
2021/01/05 03:25:55;;;;;;;30.17;14.43;;;4.60;94.20;;;;;;5069737;28;20193;-80
2021/01/05 03:28:25;;;;;;;40.87;17.10;;;4.60;94.30;;;;;;5070228;28;20930;-80
2021/01/05 03:30:56;;;;;;;49.47;21.47;;;4.60;94.30;;;;;;5065906;28;20193;-80
2021/01/05 03:33:26;;;;;;;55.33;22.73;;;4.60;94.30;;;;;;5071985;28;20217;-81
2021/01/05 03:35:53;;;;;;;53.17;21.80;;;4.70;94.30;;;;;;5074118;28;20192;-81
2021/01/05 03:38:21;;;;;;;44.27;18.73;;;4.60;94.30;;;;;;5073009;28;20265;-82
2021/01/05 03:40:48;;;;;;;54.57;22.57;;;4.60;94.30;;;;;;5069077;28;20204;-81
2021/01/05 03:43:16;;;;;;;53.80;22.47;;;4.60;94.30;;;;;;5060307;28;20292;-80
2021/01/05 03:45:43;;;;;;;50.90;20.30;;;4.60;94.30;;;;;;5073107;28;20222;-81
2021/01/05 03:48:11;;;;;;;51.40;21.60;;;4.70;94.30;;;;;;5061642;28;20530;-78
2021/01/05 03:50:39;;;;;;;55.00;22.53;;;4.60;94.30;;;;;;5066580;28;20199;-79
2021/01/05 03:53:08;;;;;;;36.77;16.43;;;4.60;94.30;;;;;;5071541;28;20715;-81
2021/01/05 03:55:35;;;;;;;57.33;22.53;;;4.70;94.30;;;;;;5064974;28;20357;-81
2021/01/05 03:58:02;;;;;;;41.20;16.57;;;4.70;94.30;;;;;;5072937;28;20564;-80
2021/01/05 04:00:30;;;;;;;39.73;15.60;;;4.60;94.30;;;;;;5074768;28;20806;-80
2021/01/05 04:02:58;;;;;;;49.40;19.63;;;4.60;94.30;;;;;;5073390;28;20274;-82
2021/01/05 04:05:28;;;;;;;55.63;20.40;;;4.80;94.40;;;;;;5069729;28;20204;-80
2021/01/05 04:07:56;;;;;;;42.10;18.27;;;4.70;94.30;;;;;;5062856;28;20196;-82
2021/01/05 04:10:24;;;;;;;42.80;18.07;;;4.60;94.30;;;;;;5071816;28;20218;-81
2021/01/05 04:12:52;;;;;;;28.40;13.50;;;4.60;94.30;;;;;;5081990;28;20218;-82
2021/01/05 04:15:23;;;;;;;39.90;19.23;;;4.70;94.40;;;;;;5071421;28;20224;-81
2021/01/05 04:17:51;;;;;;;29.70;15.27;;;4.70;94.40;;;;;;5077320;28;20193;-80
2021/01/05 04:20:19;;;;;;;30.23;14.03;;;4.70;94.40;;;;;;5063292;28;20207;-80
2021/01/05 04:22:47;;;;;;;28.17;15.63;;;4.70;94.40;;;;;;5065153;28;20218;-81
2021/01/05 04:25:17;;;;;;;33.87;15.40;;;4.60;94.40;;;;;;5072392;28;20254;-82
2021/01/05 04:27:47;;;;;;;23.70;12.97;;;4.70;94.40;;;;;;5060597;28;20198;-80
2021/01/05 04:30:21;;;;;;;23.73;12.17;;;4.70;94.50;;;;;;5071787;28;20196;-78
2021/01/05 04:32:49;;;;;;;26.60;13.93;;;4.70;94.50;;;;;;5065892;28;20343;-81
2021/01/05 04:35:19;;;;;;;29.80;15.10;;;4.70;94.50;;;;;;5068208;28;20219;-80
2021/01/05 04:37:47;;;;;;;28.63;15.13;;;4.60;94.50;;;;;;5074077;28;20820;-82
2021/01/05 04:40:26;;;;;;;17.83;9.07;;;4.60;94.50;;;;;;5065776;28;20521;-80
2021/01/05 04:43:11;;;;;;;25.40;13.50;;;4.60;94.50;;;;;;5069503;28;20241;-80
2021/01/05 04:45:47;;;;;;;23.90;12.83;;;4.70;94.50;;;;;;5095108;28;20416;-82
2021/01/05 04:48:32;;;;;;;24.90;10.87;;;4.70;94.60;;;;;;5087821;28;20207;-80
2021/01/05 04:51:02;;;;;;;13.97;7.83;;;4.70;94.60;;;;;;5074549;28;20287;-81
2021/01/05 04:53:37;;;;;;;15.57;9.40;;;4.70;94.60;;;;;;5059503;28;20245;-82
2021/01/05 04:56:10;;;;;;;21.57;11.23;;;4.80;94.60;;;;;;5070405;28;20564;-80
2021/01/05 04:58:42;;;;;;;19.87;10.83;;;4.90;94.70;;;;;;5064616;28;20634;-80
2021/01/05 05:01:17;;;;;;;19.10;9.70;;;4.80;94.70;;;;;;5074501;28;20404;-80
2021/01/05 05:04:02;;;;;;;16.20;10.27;;;4.80;94.70;;;;;;5081559;28;20211;-81
2021/01/05 05:06:38;;;;;;;13.03;6.53;;;4.90;94.70;;;;;;5060882;28;20257;-80
2021/01/05 05:09:26;;;;;;;18.23;9.13;;;4.80;94.70;;;;;;5085801;28;20401;-82
2021/01/05 05:12:07;;;;;;;17.00;9.40;;;4.80;94.70;;;;;;5066492;28;20856;-81
2021/01/05 05:14:47;;;;;;;12.83;7.63;;;4.80;94.70;;;;;;5044127;28;20441;-82
2021/01/05 05:17:52;;;;;;;13.57;8.07;;;4.80;94.70;;;;;;5100262;28;20191;-82
2021/01/05 05:20:39;;;;;;;14.90;8.77;;;4.80;94.70;;;;;;5074855;28;20234;-81
2021/01/05 05:23:43;;;;;;;15.27;8.03;;;4.80;94.70;;;;;;5081107;28;20504;-79
2021/01/05 05:26:15;;;;;;;16.17;8.80;;;4.80;94.70;;;;;;5070465;28;20208;-82
2021/01/05 05:28:50;;;;;;;14.87;9.00;;;4.80;94.70;;;;;;5067813;28;20222;-81
2021/01/05 05:31:22;;;;;;;13.87;8.37;;;4.80;94.80;;;;;;5081920;28;20214;-79
2021/01/05 05:33:54;;;;;;;15.27;8.80;;;4.90;94.80;;;;;;5062588;28;20223;-81
2021/01/05 05:36:57;;;;;;;15.30;9.03;;;4.80;94.80;;;;;;5079465;28;20208;-79
2021/01/05 05:39:53;;;;;;;15.03;8.37;;;4.80;94.80;;;;;;5059949;28;20510;-81
2021/01/05 05:42:42;;;;;;;14.53;8.23;;;4.80;94.80;;;;;;5070538;28;20195;-79
2021/01/05 05:45:14;;;;;;;14.67;8.43;;;4.80;94.80;;;;;;5019667;28;20211;-82
2021/01/05 05:47:48;;;;;;;10.67;6.23;;;4.80;94.80;;;;;;5073500;28;20602;-81
2021/01/05 05:50:22;;;;;;;9.63;5.93;;;4.80;94.80;;;;;;5074379;28;20679;-80
2021/01/05 05:52:56;;;;;;;13.97;7.73;;;4.80;94.80;;;;;;5080973;28;20741;-81
2021/01/05 05:55:34;;;;;;;13.33;7.47;;;4.80;94.80;;;;;;5082432;28;20211;-80
2021/01/05 05:58:03;;;;;;;12.87;7.43;;;4.90;94.80;;;;;;5069240;28;20220;-80
2021/01/05 06:00:36;;;;;;;14.87;8.13;;;4.80;94.80;;;;;;5068673;28;20197;-81
2021/01/05 06:03:05;;;;;;;12.63;6.90;;;4.80;94.80;;;;;;5066492;28;20655;-80
2021/01/05 06:05:35;;;;;;;11.93;7.73;;;4.90;94.80;;;;;;4884964;28;20254;-80
2021/01/05 06:08:05;;;;;;;11.00;7.33;;;4.80;94.80;;;;;;4896197;28;20215;-80
2021/01/05 06:10:33;;;;;;;13.47;7.03;;;4.80;94.80;;;;;;4912213;28;20464;-81
2021/01/05 06:13:01;;;;;;;10.13;7.00;;;4.90;94.80;;;;;;4914763;28;20391;-83
2021/01/05 06:15:33;;;;;;;7.43;5.33;;;4.80;94.80;;;;;;4892550;28;20249;-79
2021/01/05 06:18:03;;;;;;;10.73;5.93;;;4.90;94.80;;;;;;4936689;28;20322;-82
2021/01/05 06:20:30;;;;;;;8.93;6.23;;;4.90;94.80;;;;;;4992428;28;20747;-81
2021/01/05 06:22:58;;;;;;;4.70;3.27;;;4.90;94.80;;;;;;4998841;28;20211;-80
2021/01/05 06:25:26;;;;;;;5.67;3.87;;;4.90;94.80;;;;;;5000383;28;20200;-80
2021/01/05 06:27:54;;;;;;;9.57;6.37;;;5.00;94.90;;;;;;4994524;28;21005;-80
2021/01/05 06:30:22;;;;;;;9.13;6.03;;;4.90;94.80;;;;;;5000100;28;20447;-81
2021/01/05 06:32:50;;;;;;;9.50;5.77;;;4.90;94.80;;;;;;5022390;28;20194;-80
2021/01/05 06:35:21;;;;;;;7.27;4.33;;;4.90;94.90;;;;;;5023325;28;20375;-80
2021/01/05 06:37:49;;;;;;;8.30;5.10;;;4.90;94.80;;;;;;5020937;28;20199;-79
2021/01/05 06:40:19;;;;;;;5.53;4.27;;;4.90;94.90;;;;;;5010148;28;20803;-80
2021/01/05 06:42:47;;;;;;;7.40;4.93;;;4.90;94.80;;;;;;5006446;28;20202;-81
2021/01/05 06:45:18;;;;;;;7.40;5.30;;;4.90;94.80;;;;;;5004678;28;20226;-79
2021/01/05 06:47:45;;;;;;;7.10;3.37;;;4.90;94.80;;;;;;5006318;28;20267;-80
2021/01/05 06:50:14;;;;;;;4.77;3.23;;;4.90;94.80;;;;;;5014683;28;20187;-80
2021/01/05 06:52:43;;;;;;;5.33;3.87;;;4.80;94.80;;;;;;5002013;28;20285;-80
2021/01/05 06:55:12;;;;;;;7.57;4.53;;;4.90;94.80;;;;;;4999236;28;20262;-81
2021/01/05 06:57:39;;;;;;;5.97;3.93;;;4.80;94.70;;;;;;4991015;28;20289;-78
2021/01/05 07:00:11;;;;;;;4.00;2.93;;;4.80;94.70;;;;;;4996305;28;20204;-80
2021/01/05 07:02:39;;;;;;;3.77;2.83;;;4.80;94.70;;;;;;4993396;28;21166;-80
2021/01/05 07:05:08;;;;;;;4.83;3.53;;;4.80;94.70;;;;;;4999913;28;20210;-81
2021/01/05 07:07:35;;;;;;;3.53;2.57;;;4.90;94.70;;;;;;4983543;28;20215;-79
2021/01/05 07:10:08;;;;;;;5.23;3.13;;;4.80;94.60;;;;;;4990259;28;20466;-79
2021/01/05 07:12:36;;;;;;;4.33;2.53;;;4.80;94.60;;;;;;4993258;28;20280;-81
2021/01/05 07:15:06;;;;;;;2.57;2.00;;;4.80;94.60;;;;;;4991590;28;20230;-80
2021/01/05 07:17:34;;;;;;;4.97;2.93;;;4.80;94.60;;;;;;4998187;28;20256;-81
2021/01/05 07:20:01;;;;;;;3.80;2.57;;;4.80;94.50;;;;;;5005272;28;20209;-79
2021/01/05 07:22:31;;;;;;;3.03;2.10;;;4.80;94.50;;;;;;4998283;28;20202;-82
2021/01/05 07:24:58;;;;;;;3.50;2.60;;;4.70;94.50;;;;;;4994880;28;20253;-79
2021/01/05 07:27:27;;;;;;;4.37;2.20;;;4.70;94.50;;;;;;4993461;28;20212;-79
2021/01/05 07:29:56;;;;;;;2.93;2.00;;;4.70;94.50;;;;;;4997606;28;20753;-80
2021/01/05 07:32:23;;;;;;;3.23;2.07;;;4.70;94.50;;;;;;5001636;28;20626;-81
2021/01/05 07:34:50;;;;;;;3.03;1.90;;;4.70;94.40;;;;;;4999746;28;20229;-79
2021/01/05 07:37:22;;;;;;;2.10;1.90;;;4.70;94.40;;;;;;5014629;28;20217;-81
2021/01/05 07:39:50;;;;;;;2.53;2.17;;;4.70;94.40;;;;;;5011850;28;20494;-82
2021/01/05 07:42:19;;;;;;;1.90;1.37;;;4.70;94.40;;;;;;5003954;28;20212;-80
2021/01/05 07:44:50;;;;;;;2.43;1.93;;;4.60;94.50;;;;;;4995094;28;20540;-79
2021/01/05 07:47:18;;;;;;;1.47;1.30;;;4.60;94.40;;;;;;4991593;28;20205;-80
2021/01/05 07:49:46;;;;;;;2.40;1.37;;;4.60;94.30;;;;;;4989170;28;20217;-79
2021/01/05 07:52:18;;;;;;;2.00;1.13;;;4.60;94.30;;;;;;4994118;28;20881;-80
2021/01/05 07:54:46;;;;;;;1.37;1.20;;;4.50;94.30;;;;;;4989478;28;20223;-78
2021/01/05 07:57:14;;;;;;;0.90;0.90;;;4.50;94.20;;;;;;4996627;28;20219;-78
2021/01/05 07:59:41;;;;;;;2.23;1.87;;;4.50;94.10;;;;;;4990670;28;20206;-80
2021/01/05 08:02:10;;;;;;;1.27;1.17;;;4.40;94.10;;;;;;4982775;28;20258;-79
2021/01/05 08:04:41;;;;;;;1.67;1.13;;;4.40;94.00;;;;;;4979347;28;20220;-81
2021/01/05 08:07:09;;;;;;;2.97;1.60;;;4.40;94.00;;;;;;4998728;28;20230;-79
2021/01/05 08:09:41;;;;;;;1.47;1.37;;;4.40;94.10;;;;;;4992697;28;20202;-81
2021/01/05 08:12:14;;;;;;;1.40;1.03;;;4.30;94.10;;;;;;4993220;28;20204;-79
2021/01/05 08:14:42;;;;;;;1.17;1.07;;;4.30;94.00;;;;;;5001341;28;20253;-78
2021/01/05 08:17:11;;;;;;;1.97;1.60;;;4.30;93.90;;;;;;4989932;28;20268;-80
2021/01/05 08:19:43;;;;;;;2.00;1.30;;;4.30;94.00;;;;;;4985858;28;20207;-82
2021/01/05 08:22:11;;;;;;;0.97;0.93;;;4.10;94.00;;;;;;4986795;28;20503;-79
2021/01/05 08:24:39;;;;;;;0.80;0.80;;;4.20;93.90;;;;;;4990124;28;20622;-79
2021/01/05 08:27:07;;;;;;;1.33;0.97;;;4.20;93.90;;;;;;4991809;28;20199;-81
2021/01/05 08:29:35;;;;;;;1.50;1.40;;;4.20;93.90;;;;;;4989799;28;20259;-80
2021/01/05 08:32:04;;;;;;;1.03;0.70;;;4.10;93.90;;;;;;5002117;28;20510;-78
2021/01/05 08:34:32;;;;;;;0.80;0.80;;;4.10;93.90;;;;;;4993817;28;20719;-78
2021/01/05 08:37:01;;;;;;;0.80;0.80;;;4.10;93.80;;;;;;4989659;28;20582;-80
2021/01/05 08:39:29;;;;;;;1.60;1.10;;;4.30;93.80;;;;;;4996823;28;20209;-80
2021/01/05 08:41:57;;;;;;;1.07;1.00;;;4.00;93.90;;;;;;4988045;28;20222;-80
2021/01/05 08:44:25;;;;;;;1.73;1.43;;;4.00;94.00;;;;;;4987333;28;20672;-80
2021/01/05 08:46:59;;;;;;;1.23;0.97;;;4.00;94.10;;;;;;4982608;28;20209;-79
2021/01/05 08:49:28;;;;;;;1.63;1.20;;;4.00;94.20;;;;;;4978150;28;20811;-80
2021/01/05 08:51:57;;;;;;;3.80;1.60;;;4.00;94.30;;;;;;4985718;28;20196;-80
2021/01/05 08:54:25;;;;;;;2.23;1.50;;;4.00;94.30;;;;;;4981486;28;20468;-78
2021/01/05 08:56:53;;;;;;;2.70;1.80;;;3.90;94.30;;;;;;4981167;28;20239;-77
2021/01/05 08:59:21;;;;;;;2.47;2.00;;;3.90;94.20;;;;;;4990028;28;20205;-81
2021/01/05 09:01:49;;;;;;;2.90;2.00;;;3.80;94.10;;;;;;4988120;28;20202;-79
2021/01/05 09:04:18;;;;;;;2.63;1.60;;;3.80;94.10;;;;;;5013995;28;20213;-83
2021/01/05 09:06:50;;;;;;;2.17;1.40;;;3.80;94.20;;;;;;4993563;28;20232;-81
2021/01/05 09:09:18;;;;;;;1.53;1.40;;;3.70;94.00;;;;;;4998659;28;20714;-79
2021/01/05 09:11:52;;;;;;;1.33;1.17;;;3.60;93.90;;;;;;4983556;28;20233;-81
2021/01/05 09:14:20;;;;;;;1.43;1.20;;;3.60;93.90;;;;;;4987479;28;20232;-81
2021/01/05 09:16:48;;;;;;;0.97;0.97;;;3.50;93.80;;;;;;4981649;28;20392;-81
2021/01/05 09:19:15;;;;;;;2.00;1.27;;;3.50;93.90;;;;;;4982984;28;20555;-80
2021/01/05 09:21:47;;;;;;;1.33;1.23;;;3.50;93.90;;;;;;4992220;28;20389;-83
2021/01/05 09:24:17;;;;;;;1.10;0.87;;;3.50;93.90;;;;;;5004012;28;20209;-80
2021/01/05 09:26:45;;;;;;;1.50;1.20;;;3.40;93.80;;;;;;4975307;28;20216;-84
2021/01/05 09:29:13;;;;;;;1.20;0.90;;;3.40;94.00;;;;;;4983737;28;20507;-82
2021/01/05 09:31:41;;;;;;;1.67;1.47;;;3.40;93.90;;;;;;5001700;28;20197;-82
2021/01/05 09:34:09;;;;;;;1.03;0.83;;;3.30;94.00;;;;;;4984848;28;20786;-79
2021/01/05 09:36:37;;;;;;;1.83;0.90;;;3.40;94.10;;;;;;4978980;28;20437;-80
2021/01/05 09:39:07;;;;;;;1.60;1.47;;;3.30;93.90;;;;;;4980261;28;20203;-81
2021/01/05 09:41:39;;;;;;;1.80;1.70;;;3.20;94.00;;;;;;4995458;28;20989;-80
2021/01/05 09:44:08;;;;;;;1.60;1.33;;;3.20;94.00;;;;;;4982752;28;20314;-80
2021/01/05 09:46:38;;;;;;;2.13;1.83;;;3.10;94.00;;;;;;5004424;28;20196;-78
2021/01/05 09:49:07;;;;;;;1.93;1.73;;;3.20;94.00;;;;;;5007382;28;20457;-80
2021/01/05 09:51:35;;;;;;;1.50;1.20;;;3.20;94.00;;;;;;5011735;28;20214;-80
2021/01/05 09:54:13;;;;;;;1.63;1.53;;;3.20;94.00;;;;;;5009174;28;20258;-81
2021/01/05 09:56:42;;;;;;;1.77;1.57;;;3.10;93.90;;;;;;5010631;28;20346;-82
2021/01/05 09:59:14;;;;;;;1.77;1.57;;;3.00;93.90;;;;;;5015929;28;20216;-81
2021/01/05 10:01:41;;;;;;;2.17;1.90;;;3.10;94.00;;;;;;5013619;28;20484;-80
2021/01/05 10:04:11;;;;;;;2.10;1.53;;;3.00;93.90;;;;;;5007726;28;20191;-81
2021/01/05 10:06:38;;;;;;;2.53;2.00;;;2.90;94.00;;;;;;5004508;28;20211;-80
2021/01/05 10:09:08;;;;;;;2.33;2.07;;;3.00;94.00;;;;;;4999524;28;20400;-80
2021/01/05 10:11:39;;;;;;;6.70;2.50;;;3.00;94.00;;;;;;4998809;28;20464;-81
2021/01/05 10:14:14;;;;;;;3.03;2.03;;;3.00;94.00;;;;;;4999020;28;20228;-82
2021/01/05 10:16:43;;;;;;;4.73;2.20;;;2.90;93.90;;;;;;4978592;28;20377;-80
2021/01/05 10:19:12;;;;;;;3.50;2.03;;;2.90;93.90;;;;;;4991494;28;20556;-81
2021/01/05 10:21:42;;;;;;;1.63;1.23;;;2.90;94.00;;;;;;5005507;28;20857;-81
2021/01/05 10:24:13;;;;;;;2.87;2.60;;;3.00;93.90;;;;;;5001839;28;20521;-81
2021/01/05 10:26:41;;;;;;;3.10;2.20;;;2.90;94.00;;;;;;5002194;28;20281;-80
2021/01/05 10:29:13;;;;;;;2.17;1.97;;;2.90;94.00;;;;;;5009681;28;20210;-82
2021/01/05 10:31:43;;;;;;;4.07;2.60;;;2.70;94.00;;;;;;4971778;28;20349;-79
2021/01/05 10:34:12;;;;;;;4.73;3.40;;;2.80;94.00;;;;;;4972879;28;20270;-81
2021/01/05 10:36:40;;;;;;;2.60;1.97;;;2.80;94.00;;;;;;5010911;28;20204;-82
2021/01/05 10:39:10;;;;;;;1.90;1.80;;;2.80;94.00;;;;;;4992217;28;20272;-80
2021/01/05 10:41:40;;;;;;;5.67;3.73;;;2.80;94.10;;;;;;4971514;28;20223;-82
2021/01/05 10:44:08;;;;;;;4.37;3.57;;;2.80;94.10;;;;;;4967547;28;20852;-81
2021/01/05 10:46:37;;;;;;;4.93;3.13;;;2.80;94.10;;;;;;5005301;28;20247;-81
2021/01/05 10:49:05;;;;;;;5.67;4.43;;;2.80;94.20;;;;;;4992848;28;20295;-82
2021/01/05 10:51:33;;;;;;;2.53;2.33;;;2.90;94.20;;;;;;4964144;28;20203;-81
2021/01/05 10:54:02;;;;;;;6.43;4.60;;;2.90;94.20;;;;;;4958252;28;20266;-81
2021/01/05 10:56:30;;;;;;;8.47;5.20;;;2.90;94.20;;;;;;4971186;28;20211;-80
2021/01/05 10:58:57;;;;;;;6.23;4.53;;;2.90;94.20;;;;;;4981343;28;20601;-80
2021/01/05 11:01:32;;;;;;;4.57;3.97;;;2.90;94.20;;;;;;4965327;28;20594;-82
2021/01/05 11:04:01;;;;;;;6.20;5.40;;;3.00;94.20;;;;;;4953138;28;20823;-82
2021/01/05 11:06:36;;;;;;;6.80;5.47;;;3.00;94.20;;;;;;4981149;28;20485;-83
2021/01/05 11:09:05;;;;;;;9.33;5.97;;;2.90;94.20;;;;;;4990009;28;20581;-81
2021/01/05 11:11:34;;;;;;;7.60;5.47;;;3.10;94.30;;;;;;4970078;28;20621;-81
2021/01/05 11:14:04;;;;;;;7.60;4.73;;;3.00;94.20;;;;;;4963903;28;20344;-81
2021/01/05 11:16:32;;;;;;;8.70;5.77;;;3.10;94.30;;;;;;4995640;28;20203;-82
2021/01/05 11:18:59;;;;;;;7.40;5.20;;;3.10;94.30;;;;;;5003067;28;20279;-80
2021/01/05 11:21:28;;;;;;;7.93;6.10;;;3.10;94.30;;;;;;4965051;28;20224;-80
2021/01/05 11:23:56;;;;;;;6.80;5.93;;;3.20;94.30;;;;;;4956859;28;20238;-80
2021/01/05 11:26:24;;;;;;;8.33;6.20;;;3.20;94.30;;;;;;4985977;28;20228;-81
2021/01/05 11:28:52;;;;;;;7.40;6.37;;;3.30;94.30;;;;;;4986006;28;20392;-80
2021/01/05 11:31:21;;;;;;;7.73;6.93;;;3.40;94.40;;;;;;4953340;28;20694;-83
2021/01/05 11:33:48;;;;;;;6.53;5.57;;;3.30;94.30;;;;;;4950840;28;20223;-81
2021/01/05 11:36:24;;;;;;;6.67;5.80;;;3.30;94.30;;;;;;4985886;28;20253;-80
2021/01/05 11:38:54;;;;;;;7.97;5.20;;;3.30;94.40;;;;;;4989023;28;20576;-81
2021/01/05 11:41:24;;;;;;;6.03;4.30;;;3.40;94.40;;;;;;4977629;28;20213;-80
2021/01/05 11:43:51;;;;;;;9.77;7.00;;;3.40;94.40;;;;;;4938486;28;20248;-82
2021/01/05 11:46:20;;;;;;;8.07;6.60;;;3.40;94.40;;;;;;4985124;28;20609;-81
2021/01/05 11:48:47;;;;;;;8.40;6.70;;;3.40;94.40;;;;;;4968708;28;20518;-81
2021/01/05 11:51:21;;;;;;;10.50;7.23;;;3.50;94.40;;;;;;4953322;28;20308;-81
2021/01/05 11:53:49;;;;;;;8.73;6.67;;;3.50;94.40;;;;;;4982179;28;20199;-82
2021/01/05 11:56:24;;;;;;;9.53;7.20;;;3.50;94.40;;;;;;5009527;28;20402;-80
2021/01/05 11:58:52;;;;;;;7.87;6.97;;;3.60;94.40;;;;;;5005825;28;20252;-80
2021/01/05 12:01:20;;;;;;;8.67;6.10;;;3.60;94.40;;;;;;4967317;28;20804;-80
2021/01/05 12:03:49;;;;;;;7.37;6.20;;;3.70;94.50;;;;;;4963657;28;20187;-80
2021/01/05 12:06:19;;;;;;;8.47;6.43;;;3.70;94.50;;;;;;5009367;28;20423;-81
2021/01/05 12:08:47;;;;;;;6.53;5.90;;;3.80;94.50;;;;;;5007603;28;20325;-83
2021/01/05 12:11:18;;;;;;;6.97;6.20;;;3.90;94.50;;;;;;4973813;28;20807;-82
2021/01/05 12:13:48;;;;;;;8.13;6.40;;;4.00;94.60;;;;;;4955542;28;20269;-81
2021/01/05 12:16:25;;;;;;;6.53;5.67;;;4.10;94.60;;;;;;4980670;28;20200;-80
2021/01/05 12:18:53;;;;;;;8.23;6.50;;;4.10;94.60;;;;;;4992613;28;20308;-81
2021/01/05 12:21:23;;;;;;;6.87;6.07;;;4.10;94.60;;;;;;4956748;28;21694;-82
2021/01/05 12:23:51;;;;;;;8.53;6.63;;;4.20;94.60;;;;;;4949199;28;20224;-82
2021/01/05 12:26:25;;;;;;;6.37;5.73;;;4.20;94.60;;;;;;4961052;28;20916;-81
2021/01/05 12:28:57;;;;;;;7.30;5.73;;;4.10;94.50;;;;;;4974994;28;20198;-81
2021/01/05 12:31:26;;;;;;;7.13;5.80;;;4.20;94.60;;;;;;4950592;28;20936;-81
2021/01/05 12:33:55;;;;;;;8.07;6.07;;;4.20;94.60;;;;;;4950146;28;20231;-81
2021/01/05 12:36:25;;;;;;;6.40;5.80;;;4.30;94.60;;;;;;4984438;28;20867;-81
2021/01/05 12:38:54;;;;;;;6.10;5.60;;;4.30;94.60;;;;;;4971868;28;20211;-80
2021/01/05 12:41:23;;;;;;;7.60;6.40;;;4.30;94.60;;;;;;4953216;28;21178;-80
2021/01/05 12:43:51;;;;;;;7.70;5.80;;;4.20;94.60;;;;;;4952790;28;20255;-81
2021/01/05 12:46:24;;;;;;;7.27;6.47;;;4.20;94.60;;;;;;4979249;28;20307;-80
2021/01/05 12:48:51;;;;;;;8.53;6.20;;;4.30;94.70;;;;;;4982422;28;20202;-80
2021/01/05 12:51:36;;;;;;;7.07;6.37;;;4.30;94.70;;;;;;4960331;28;20717;-80
2021/01/05 12:54:05;;;;;;;6.43;5.83;;;4.30;94.70;;;;;;4950617;28;20761;-80
2021/01/05 12:56:33;;;;;;;7.53;5.90;;;4.30;94.70;;;;;;4980384;28;20214;-82
2021/01/05 12:59:02;;;;;;;7.20;6.50;;;4.40;94.70;;;;;;4975228;28;20195;-80
2021/01/05 13:01:30;;;;;;;7.40;6.27;;;4.40;94.70;;;;;;4952978;28;20231;-81
2021/01/05 13:03:58;;;;;;;8.53;6.67;;;4.40;94.70;;;;;;4951993;28;20301;-81
2021/01/05 13:06:25;;;;;;;9.53;6.87;;;4.50;94.70;;;;;;4990078;28;20202;-81
2021/01/05 13:08:53;;;;;;;7.60;6.67;;;4.50;94.70;;;;;;5004789;28;20275;-83
2021/01/05 13:11:24;;;;;;;8.03;7.07;;;4.50;94.70;;;;;;4962532;28;21502;-81